7AR4 weather

Brown'S Airport
Searcy, Arkansas, United States

Public forecast

Using degrees Fahrenheit for public forecast. Weather courtesy of forecast.io.

METAR (pilot weather report)

Closest report is Searcy Municipal Airport, 8.9 nm (16.6 km) ESE. Retrieved 2019/09/21 07:56 UTC (34 minutes ago):

KSRC 210756Z AUTO 00000KT 10SM OVC080 22/22 A3013 RMK AO2 SLP202 T02220222 TSNO

TAF (pilot weather forecast)

Closest forecast is Little Rock Air Force Base, 25.9 nm (48.0 km) SSW. Retrieved 2019/09/21 07:07 UTC (1 hour ago):

TAF KLRF 210700Z 2107/2213 12006KT 9999 SCT040 BKN080 OVC130 QNH3009INS BECMG 2113/2114 16010G15KT 9999 FEW040 SCT070 SCT200 QNH3007INS BECMG 2122/2123 18006KT 9999 FEW030 SCT060 SCT140 QNH3006INS TX31/2121Z TN20/2110Z